createdAt,value
2019-05-18T00:00:30.173Z,15.90
2019-05-18T00:01:35.141Z,15.07
2019-05-18T00:02:39.563Z,15.77
2019-05-18T00:03:44.565Z,14.90
2019-05-18T00:04:50.333Z,14.77
2019-05-18T00:05:55.481Z,15.67
2019-05-18T00:06:59.843Z,16.80
2019-05-18T00:08:05.166Z,16.20
2019-05-18T00:09:09.582Z,14.90
2019-05-18T00:10:14.906Z,15.70
2019-05-18T00:11:19.251Z,16.00
2019-05-18T00:12:24.349Z,16.77
2019-05-18T00:13:29.720Z,16.43
2019-05-18T00:14:34.659Z,15.37
2019-05-18T00:15:39.109Z,15.10
2019-05-18T00:16:44.121Z,15.47
2019-05-18T00:17:50.338Z,16.02
2019-05-18T00:18:55.451Z,15.07
2019-05-18T00:19:59.802Z,15.90
2019-05-18T00:21:04.742Z,15.60
2019-05-18T00:22:09.136Z,16.50
2019-05-18T00:23:14.145Z,15.90
2019-05-18T00:24:18.555Z,16.17
2019-05-18T00:25:23.496Z,15.00
2019-05-18T00:26:28.968Z,16.53
2019-05-18T00:27:34.083Z,16.37
2019-05-18T00:28:38.484Z,15.93
2019-05-18T00:29:43.519Z,15.87
2019-05-18T00:30:47.977Z,16.07
2019-05-18T00:31:52.877Z,15.87
2019-05-18T00:32:57.277Z,16.87
2019-05-18T00:34:02.272Z,17.20
2019-05-18T00:35:07.557Z,17.73
2019-05-18T00:36:12.675Z,15.83
2019-05-18T00:37:17.051Z,17.10
2019-05-18T00:38:21.943Z,15.07
2019-05-18T00:39:26.362Z,18.30
2019-05-18T00:40:31.282Z,15.70
2019-05-18T00:41:35.590Z,16.33
2019-05-18T00:42:40.496Z,16.20
2019-05-18T00:43:44.880Z,17.37
2019-05-18T00:44:49.805Z,16.03
2019-05-18T00:45:54.215Z,16.60
2019-05-18T00:46:59.144Z,15.20
2019-05-18T00:48:03.597Z,16.87
2019-05-18T00:49:08.552Z,18.00
2019-05-18T00:50:13.749Z,17.67
2019-05-18T00:51:18.673Z,16.63
2019-05-18T00:52:23.052Z,16.63
2019-05-18T00:53:27.941Z,16.87
2019-05-18T00:54:32.374Z,15.60
2019-05-18T00:55:37.354Z,15.53
2019-05-18T00:56:41.730Z,15.77
2019-05-18T00:57:46.624Z,16.37
2019-05-18T00:58:51.109Z,16.73
2019-05-18T00:59:56.014Z,17.00
2019-05-18T01:01:00.336Z,17.40
2019-05-18T01:02:08.619Z,17.40
2019-05-18T01:03:13.174Z,17.83
2019-05-18T01:04:18.057Z,16.07
2019-05-18T01:05:22.466Z,17.23
2019-05-18T01:06:27.424Z,17.30
2019-05-18T01:07:33.562Z,16.57
2019-05-18T01:08:38.605Z,17.90
2019-05-18T01:09:43.072Z,17.33
2019-05-18T01:10:48.019Z,15.93
2019-05-18T01:11:52.347Z,16.60
2019-05-18T01:12:58.549Z,17.10
2019-05-18T01:14:03.419Z,17.83
2019-05-18T01:15:10.704Z,17.50
2019-05-18T01:16:15.173Z,18.43
2019-05-18T01:17:20.422Z,17.23
2019-05-18T01:18:26.576Z,17.53
2019-05-18T01:19:32.438Z,17.97
2019-05-18T01:20:36.819Z,17.43
2019-05-18T01:21:41.757Z,18.50
2019-05-18T01:22:46.086Z,18.87
2019-05-18T01:23:50.987Z,18.03
2019-05-18T01:24:55.286Z,17.37
2019-05-18T01:26:00.420Z,19.00
2019-05-18T01:27:07.798Z,18.07
2019-05-18T01:28:12.821Z,19.83
2019-05-18T01:29:17.272Z,18.97
2019-05-18T01:30:23.090Z,19.10
2019-05-18T01:31:27.412Z,19.17
2019-05-18T01:32:32.692Z,19.13
2019-05-18T01:33:37.516Z,19.50
2019-05-18T01:34:42.520Z,19.07
2019-05-18T01:35:47.133Z,19.73
2019-05-18T01:36:53.393Z,18.77
2019-05-18T01:37:57.833Z,18.37
2019-05-18T01:39:02.746Z,19.33
2019-05-18T01:40:07.985Z,19.27
2019-05-18T01:41:13.056Z,20.10
2019-05-18T01:42:17.447Z,21.87
2019-05-18T01:43:22.804Z,20.77
2019-05-18T01:44:27.552Z,20.80
2019-05-18T01:45:32.441Z,20.03
2019-05-18T01:46:36.845Z,19.13
2019-05-18T01:47:41.853Z,19.33
2019-05-18T01:48:46.257Z,19.70
2019-05-18T01:49:53.805Z,18.93
2019-05-18T01:50:58.171Z,19.17
2019-05-18T01:52:03.221Z,19.77
2019-05-18T01:53:07.776Z,21.50
2019-05-18T01:54:12.781Z,19.00
2019-05-18T01:55:17.137Z,19.57
2019-05-18T01:56:22.019Z,19.33
2019-05-18T01:57:26.397Z,18.53
2019-05-18T01:58:31.292Z,20.23
2019-05-18T01:59:35.697Z,20.23
2019-05-18T02:00:40.561Z,19.87
2019-05-18T02:01:44.964Z,19.83
2019-05-18T02:02:49.851Z,21.07
2019-05-18T02:03:55.675Z,21.10
2019-05-18T02:05:00.564Z,20.47
2019-05-18T02:06:05.488Z,19.83
2019-05-18T02:07:10.700Z,21.40
2019-05-18T02:08:15.056Z,21.67
2019-05-18T02:09:20.118Z,21.97
2019-05-18T02:10:24.534Z,21.40
2019-05-18T02:11:29.623Z,21.00
2019-05-18T02:12:34.205Z,20.33
2019-05-18T02:13:39.053Z,21.17
2019-05-18T02:14:43.384Z,20.90
2019-05-18T02:15:48.236Z,21.60
2019-05-18T02:16:52.603Z,21.33
2019-05-18T02:17:58.647Z,19.63
2019-05-18T02:19:03.190Z,21.13
2019-05-18T02:20:08.953Z,20.43
2019-05-18T02:21:13.487Z,19.03
2019-05-18T02:22:18.437Z,20.90
2019-05-18T02:23:22.757Z,19.27
2019-05-18T02:24:28.108Z,21.43
2019-05-18T02:25:32.501Z,21.07
2019-05-18T02:26:37.422Z,21.40
2019-05-18T02:27:41.897Z,22.10
2019-05-18T02:28:46.736Z,20.73
2019-05-18T02:29:51.313Z,21.30
2019-05-18T02:30:56.219Z,21.93
2019-05-18T02:32:00.524Z,22.43
2019-05-18T02:33:06.615Z,21.43
2019-05-18T02:34:11.120Z,22.77
2019-05-18T02:35:16.094Z,21.37
2019-05-18T02:36:21.794Z,23.37
2019-05-18T02:37:26.956Z,20.73
2019-05-18T02:38:32.877Z,21.43
2019-05-18T02:39:37.916Z,20.83
2019-05-18T02:40:42.433Z,20.63
2019-05-18T02:41:47.385Z,21.83
2019-05-18T02:42:52.016Z,21.57
2019-05-18T02:43:56.929Z,20.53
2019-05-18T02:45:01.570Z,19.83
2019-05-18T02:46:06.740Z,20.67
2019-05-18T02:47:12.474Z,20.50
2019-05-18T02:48:17.553Z,21.67
2019-05-18T02:49:21.926Z,21.83
2019-05-18T02:50:27.089Z,20.77
2019-05-18T02:51:31.434Z,21.63
2019-05-18T02:52:36.407Z,21.70
2019-05-18T02:53:40.940Z,22.13
2019-05-18T02:54:45.852Z,23.07
2019-05-18T02:55:50.244Z,23.30
2019-05-18T02:56:55.233Z,22.90
2019-05-18T02:57:59.550Z,22.77
2019-05-18T02:59:04.799Z,24.33
2019-05-18T03:00:09.872Z,22.47
2019-05-18T03:01:15.240Z,22.13
2019-05-18T03:02:19.590Z,21.57
2019-05-18T03:03:24.799Z,23.17
2019-05-18T03:04:29.362Z,23.60
2019-05-18T03:05:34.510Z,23.40
2019-05-18T03:06:40.793Z,23.27
2019-05-18T03:07:45.747Z,23.23
2019-05-18T03:08:50.550Z,22.63
2019-05-18T03:09:55.442Z,22.27
2019-05-18T03:10:59.891Z,20.77
2019-05-18T03:12:05.212Z,22.50
2019-05-18T03:13:09.587Z,21.07
2019-05-18T03:14:14.994Z,20.67
2019-05-18T03:15:19.345Z,21.40
2019-05-18T03:16:24.314Z,22.37
2019-05-18T03:17:28.727Z,23.00
2019-05-18T03:18:34.608Z,21.37
2019-05-18T03:19:40.321Z,22.27
2019-05-18T03:20:45.275Z,21.33
2019-05-18T03:21:49.961Z,21.27
2019-05-18T03:22:54.912Z,21.27
2019-05-18T03:23:59.429Z,23.70
2019-05-18T03:25:04.346Z,22.37
2019-05-18T03:26:08.749Z,23.67
2019-05-18T03:27:14.372Z,23.87
2019-05-18T03:28:18.692Z,21.50
2019-05-18T03:29:23.544Z,22.37
2019-05-18T03:30:28.132Z,23.07
2019-05-18T03:31:33.222Z,22.43
2019-05-18T03:32:37.620Z,23.13
2019-05-18T03:33:42.604Z,22.33
2019-05-18T03:34:46.993Z,23.53
2019-05-18T03:35:51.914Z,23.97
2019-05-18T03:36:57.702Z,23.87
2019-05-18T03:38:02.623Z,24.53
2019-05-18T03:39:07.473Z,25.50
2019-05-18T03:40:13.538Z,25.33
2019-05-18T03:41:17.951Z,23.03
2019-05-18T03:42:22.916Z,24.40
2019-05-18T03:43:27.353Z,25.50
2019-05-18T03:44:34.104Z,24.17
2019-05-18T03:45:38.794Z,24.33
2019-05-18T03:46:43.774Z,23.80
2019-05-18T03:47:48.169Z,25.60
2019-05-18T03:48:53.201Z,23.33
2019-05-18T03:49:57.522Z,23.30
2019-05-18T03:51:02.609Z,22.20
2019-05-18T03:52:07.106Z,22.33
2019-05-18T03:53:12.657Z,23.67
2019-05-18T03:54:17.036Z,21.53
2019-05-18T03:55:22.053Z,23.87
2019-05-18T03:56:26.423Z,23.30
2019-05-18T03:57:32.983Z,23.97
2019-05-18T03:58:37.394Z,24.23
2019-05-18T03:59:42.273Z,23.87
2019-05-18T04:00:47.629Z,21.60
2019-05-18T04:01:52.553Z,23.33
2019-05-18T04:02:56.873Z,24.43
2019-05-18T04:04:01.803Z,23.20
2019-05-18T04:05:07.803Z,24.17
2019-05-18T04:06:15.520Z,22.87
2019-05-18T04:07:19.869Z,25.20
2019-05-18T04:08:24.805Z,25.03
2019-05-18T04:09:29.228Z,23.87
2019-05-18T04:10:35.274Z,24.27
2019-05-18T04:11:39.588Z,25.13
2019-05-18T04:12:45.538Z,23.10
2019-05-18T04:13:49.909Z,23.97
2019-05-18T04:14:54.801Z,25.50
2019-05-18T04:15:59.119Z,24.70
2019-05-18T04:17:03.982Z,24.77
2019-05-18T04:18:08.401Z,25.30
2019-05-18T04:19:13.837Z,27.40
2019-05-18T04:20:18.394Z,29.50
2019-05-18T04:21:23.267Z,30.50
2019-05-18T04:22:27.725Z,30.87
2019-05-18T04:23:32.731Z,30.90
2019-05-18T04:24:37.070Z,30.23
2019-05-18T04:25:43.865Z,28.50
2019-05-18T04:26:51.501Z,26.10
2019-05-18T04:27:56.459Z,25.70
2019-05-18T04:29:01.325Z,23.15
2019-05-18T04:30:07.023Z,21.80
2019-05-18T04:31:11.761Z,18.27
2019-05-18T04:32:17.768Z,15.90
2019-05-18T04:33:22.215Z,14.30
2019-05-18T04:34:27.175Z,15.20
2019-05-18T04:35:31.560Z,13.48
2019-05-18T04:36:37.712Z,13.48
2019-05-18T04:37:42.050Z,11.93
2019-05-18T04:38:46.984Z,13.72
2019-05-18T04:39:51.784Z,13.68
2019-05-18T04:40:56.741Z,13.55
2019-05-18T04:42:01.052Z,13.40
2019-05-18T04:43:06.058Z,13.38
2019-05-18T04:44:11.272Z,13.30
2019-05-18T04:45:16.592Z,12.55
2019-05-18T04:46:21.160Z,13.60
2019-05-18T04:47:26.074Z,12.68
2019-05-18T04:48:30.967Z,12.03
2019-05-18T04:49:35.893Z,12.82
2019-05-18T04:50:40.237Z,12.53
2019-05-18T04:51:45.392Z,11.88
2019-05-18T04:52:49.796Z,12.63
2019-05-18T04:53:54.945Z,12.68
2019-05-18T04:54:59.403Z,13.48
2019-05-18T04:56:04.292Z,13.00
2019-05-18T04:57:08.840Z,12.65
2019-05-18T04:58:14.660Z,12.90
2019-05-18T04:59:18.995Z,12.45
2019-05-18T05:00:24.150Z,13.20
2019-05-18T05:01:28.736Z,11.90
2019-05-18T05:02:33.738Z,12.78
2019-05-18T05:03:38.597Z,12.18
2019-05-18T05:04:43.522Z,13.13
2019-05-18T05:05:52.856Z,12.55
2019-05-18T05:06:57.808Z,12.98
2019-05-18T05:08:02.166Z,13.68
2019-05-18T05:09:09.080Z,13.22
2019-05-18T05:10:14.341Z,12.35
2019-05-18T05:11:19.234Z,13.20
2019-05-18T05:12:23.572Z,12.25
2019-05-18T05:13:28.821Z,12.35
2019-05-18T05:14:34.459Z,11.73
2019-05-18T05:15:39.717Z,13.62
2019-05-18T05:16:44.093Z,13.10
2019-05-18T05:17:48.966Z,12.33
2019-05-18T05:19:12.679Z,12.63
2019-05-18T05:20:20.143Z,11.90
2019-05-18T05:21:23.825Z,12.07
2019-05-18T05:22:28.888Z,12.63
2019-05-18T05:23:33.253Z,12.68
2019-05-18T05:24:38.323Z,12.73
2019-05-18T05:25:42.777Z,12.98
2019-05-18T05:26:47.762Z,12.90
2019-05-18T05:27:52.355Z,13.03
2019-05-18T05:28:57.364Z,12.07
2019-05-18T05:30:01.713Z,12.15
2019-05-18T05:31:06.612Z,11.90
2019-05-18T05:32:11.340Z,12.70
2019-05-18T05:33:16.434Z,13.22
2019-05-18T05:34:20.947Z,13.90
2019-05-18T05:35:25.883Z,13.43
2019-05-18T05:36:30.794Z,12.95
2019-05-18T05:37:35.742Z,13.18
2019-05-18T05:38:40.165Z,12.43
2019-05-18T05:39:45.075Z,12.55
2019-05-18T05:40:49.568Z,12.82
2019-05-18T05:41:54.745Z,12.63
2019-05-18T05:43:00.463Z,13.05
2019-05-18T05:44:05.629Z,12.30
2019-05-18T05:45:10.254Z,12.75
2019-05-18T05:46:15.464Z,13.45
2019-05-18T05:47:19.969Z,13.58
2019-05-18T05:48:24.927Z,13.28
2019-05-18T05:49:29.378Z,12.75
2019-05-18T05:50:36.375Z,11.73
2019-05-18T05:51:40.603Z,12.50
2019-05-18T05:52:45.539Z,12.85
2019-05-18T05:53:50.011Z,13.15
2019-05-18T05:54:54.917Z,11.88
2019-05-18T05:56:00.739Z,12.07
2019-05-18T05:57:06.201Z,12.40
2019-05-18T05:58:11.021Z,12.50
2019-05-18T05:59:16.188Z,12.53
2019-05-18T06:00:22.072Z,12.23
2019-05-18T06:01:27.341Z,12.50
2019-05-18T06:02:31.839Z,12.30
2019-05-18T06:03:36.822Z,12.20
2019-05-18T06:04:41.393Z,12.82
2019-05-18T06:05:46.410Z,13.20
2019-05-18T06:06:50.854Z,12.88
2019-05-18T06:07:55.735Z,11.80
2019-05-18T06:09:00.147Z,12.45
2019-05-18T06:10:05.386Z,12.60
2019-05-18T06:11:10.158Z,11.75
2019-05-18T06:12:15.545Z,11.75
2019-05-18T06:13:19.901Z,11.90
2019-05-18T06:14:24.926Z,11.80
2019-05-18T06:15:29.316Z,12.37
2019-05-18T06:16:34.816Z,12.47
2019-05-18T06:17:39.335Z,12.43
2019-05-18T06:18:44.487Z,12.55
2019-05-18T06:19:48.921Z,12.55
2019-05-18T06:20:53.955Z,12.40
2019-05-18T06:21:58.448Z,12.25
2019-05-18T06:23:03.400Z,12.03
2019-05-18T06:24:07.812Z,12.23
2019-05-18T06:25:13.555Z,12.33
2019-05-18T06:26:18.004Z,12.45
2019-05-18T06:27:22.916Z,12.60
2019-05-18T06:28:27.559Z,12.13
2019-05-18T06:29:32.642Z,12.20
2019-05-18T06:30:37.032Z,11.68
2019-05-18T06:31:42.061Z,12.90
2019-05-18T06:32:46.817Z,12.43
2019-05-18T06:33:51.754Z,12.18
2019-05-18T06:34:56.130Z,12.28
2019-05-18T06:36:01.067Z,11.75
2019-05-18T06:37:05.424Z,11.60
2019-05-18T06:38:10.718Z,11.53
2019-05-18T06:39:15.384Z,11.48
2019-05-18T06:40:20.258Z,11.97
2019-05-18T06:41:24.753Z,12.10
2019-05-18T06:42:29.672Z,11.63
2019-05-18T06:43:34.139Z,10.95
2019-05-18T06:44:39.082Z,11.75
2019-05-18T06:45:43.548Z,11.20
2019-05-18T06:46:49.026Z,12.07
2019-05-18T06:47:54.505Z,12.03
2019-05-18T06:48:59.512Z,11.75
2019-05-18T06:50:04.383Z,12.23
2019-05-18T06:51:09.501Z,12.53
2019-05-18T06:52:16.777Z,11.38
2019-05-18T06:53:23.454Z,11.63
2019-05-18T06:54:28.316Z,11.33
2019-05-18T06:55:34.428Z,11.50
2019-05-18T06:56:39.490Z,10.40
2019-05-18T06:57:45.164Z,11.95
2019-05-18T06:58:50.405Z,11.08
2019-05-18T06:59:55.886Z,11.03
2019-05-18T07:01:00.590Z,11.70
2019-05-18T07:02:08.522Z,10.93
2019-05-18T07:03:13.590Z,10.98
2019-05-18T07:04:18.672Z,12.25
2019-05-18T07:05:23.365Z,11.53
2019-05-18T07:06:28.281Z,11.03
2019-05-18T07:07:32.753Z,11.12
2019-05-18T07:08:37.750Z,11.60
2019-05-18T07:09:42.318Z,12.00
2019-05-18T07:10:47.349Z,11.18
2019-05-18T07:11:51.839Z,12.18
2019-05-18T07:12:56.843Z,11.48
2019-05-18T07:14:01.272Z,11.65
2019-05-18T07:15:07.113Z,10.90
2019-05-18T07:16:14.046Z,10.43
2019-05-18T07:17:20.294Z,10.03
2019-05-18T07:18:28.582Z,11.03
2019-05-18T07:19:35.594Z,10.58
2019-05-18T07:20:40.026Z,10.55
2019-05-18T07:21:46.526Z,10.13
2019-05-18T07:22:51.062Z,10.90
2019-05-18T07:23:56.273Z,10.90
2019-05-18T07:25:00.624Z,10.32
2019-05-18T07:26:05.922Z,10.35
2019-05-18T07:27:12.786Z,11.00
2019-05-18T07:28:17.901Z,11.00
2019-05-18T07:29:22.282Z,10.60
2019-05-18T07:30:27.952Z,10.25
2019-05-18T07:31:32.639Z,10.88
2019-05-18T07:32:37.549Z,10.98
2019-05-18T07:33:42.175Z,11.03
2019-05-18T07:34:47.339Z,10.75
2019-05-18T07:35:51.826Z,10.75
2019-05-18T07:36:56.859Z,11.45
2019-05-18T07:38:01.349Z,10.85
2019-05-18T07:39:07.432Z,11.50
2019-05-18T07:40:12.587Z,10.75
2019-05-18T07:41:17.326Z,10.78
2019-05-18T07:42:21.692Z,11.40
2019-05-18T07:43:26.964Z,10.55
2019-05-18T07:44:31.652Z,10.43
2019-05-18T07:45:36.658Z,9.55
2019-05-18T07:46:41.056Z,9.63
2019-05-18T07:47:47.107Z,9.73
2019-05-18T07:48:51.479Z,9.83
2019-05-18T07:49:56.855Z,9.70
2019-05-18T07:51:01.246Z,8.80
2019-05-18T07:52:06.249Z,11.05
2019-05-18T07:53:10.809Z,9.93
2019-05-18T07:54:17.221Z,9.80
2019-05-18T07:55:26.411Z,8.75
2019-05-18T07:56:31.338Z,8.90
2019-05-18T07:57:35.749Z,9.45
2019-05-18T07:58:40.687Z,9.18
2019-05-18T07:59:45.110Z,9.53
2019-05-18T08:00:50.202Z,9.40
2019-05-18T08:01:57.198Z,10.38
2019-05-18T08:03:02.639Z,9.75
2019-05-18T08:04:07.337Z,9.58
2019-05-18T08:05:12.716Z,9.23
2019-05-18T08:06:17.228Z,8.58
2019-05-18T08:07:22.277Z,9.98
2019-05-18T08:08:26.721Z,10.25
2019-05-18T08:09:31.646Z,9.28
2019-05-18T08:10:38.245Z,10.23
2019-05-18T08:11:43.269Z,10.50
2019-05-18T08:12:47.678Z,9.85
2019-05-18T08:13:52.745Z,9.45
2019-05-18T08:14:57.183Z,9.85
2019-05-18T08:16:02.232Z,9.03
2019-05-18T08:17:08.084Z,8.23
2019-05-18T08:18:13.599Z,8.20
2019-05-18T08:19:18.056Z,8.10
2019-05-18T08:20:23.194Z,8.88
2019-05-18T08:21:29.441Z,8.78
2019-05-18T08:22:35.864Z,7.80
2019-05-18T08:23:40.282Z,8.83
2019-05-18T08:24:45.202Z,8.65
2019-05-18T08:25:49.607Z,8.90
2019-05-18T08:26:56.411Z,8.80
2019-05-18T08:28:00.804Z,9.23
2019-05-18T08:29:05.729Z,8.23
2019-05-18T08:30:11.822Z,8.68
2019-05-18T08:31:16.887Z,9.13
2019-05-18T08:32:21.330Z,8.38
2019-05-18T08:33:26.232Z,8.65
2019-05-18T08:34:30.640Z,8.65
2019-05-18T08:35:35.998Z,8.63
2019-05-18T08:36:40.450Z,9.18
2019-05-18T08:37:45.395Z,8.35
2019-05-18T08:38:50.040Z,8.20
2019-05-18T08:39:55.324Z,7.90
2019-05-18T08:40:59.881Z,7.67
2019-05-18T08:42:04.899Z,7.67
2019-05-18T08:43:09.392Z,8.30
2019-05-18T08:44:14.845Z,8.63
2019-05-18T08:45:19.487Z,7.80
2019-05-18T08:46:24.538Z,8.28
2019-05-18T08:47:28.957Z,8.38
2019-05-18T08:48:33.861Z,7.37
2019-05-18T08:49:38.415Z,7.67
2019-05-18T08:50:43.917Z,8.73
2019-05-18T08:51:49.469Z,8.05
2019-05-18T08:52:55.803Z,7.15
2019-05-18T08:54:01.957Z,7.35
2019-05-18T08:55:07.043Z,7.75
2019-05-18T08:56:11.798Z,8.15
2019-05-18T08:57:17.736Z,8.20
2019-05-18T08:58:22.182Z,8.88
2019-05-18T08:59:27.160Z,8.90
2019-05-18T09:00:34.147Z,8.80
2019-05-18T09:01:39.186Z,8.85
2019-05-18T09:02:43.601Z,9.33
2019-05-18T09:03:48.680Z,8.55
2019-05-18T09:04:53.218Z,9.03
2019-05-18T09:05:58.318Z,8.13
2019-05-18T09:07:02.783Z,8.10
2019-05-18T09:08:07.772Z,8.58
2019-05-18T09:09:14.327Z,9.18
2019-05-18T09:10:20.117Z,8.65
2019-05-18T09:11:24.479Z,8.78
2019-05-18T09:12:29.403Z,8.45
2019-05-18T09:13:33.825Z,8.70
2019-05-18T09:14:38.810Z,9.83
2019-05-18T09:15:43.453Z,9.05
2019-05-18T09:16:48.468Z,8.43
2019-05-18T09:17:54.651Z,8.65
2019-05-18T09:18:59.632Z,8.90
2019-05-18T09:20:04.283Z,8.23
2019-05-18T09:21:09.446Z,7.47
2019-05-18T09:22:22.753Z,8.60
2019-05-18T09:23:22.115Z,8.43
2019-05-18T09:24:26.487Z,8.18
2019-05-18T09:25:32.432Z,7.92
2019-05-18T09:26:36.937Z,8.53
2019-05-18T09:27:41.858Z,7.47
2019-05-18T09:28:46.341Z,6.90
2019-05-18T09:29:51.353Z,7.12
2019-05-18T09:30:55.730Z,5.60
2019-05-18T09:32:00.946Z,7.00
2019-05-18T09:33:05.421Z,6.80
2019-05-18T09:34:10.450Z,6.62
2019-05-18T09:35:15.773Z,7.05
2019-05-18T09:36:20.983Z,8.08
2019-05-18T09:37:25.445Z,8.38
2019-05-18T09:38:33.183Z,8.15
2019-05-18T09:39:36.629Z,7.45
2019-05-18T09:40:41.553Z,7.50
2019-05-18T09:41:46.047Z,8.50
2019-05-18T09:42:52.131Z,6.40
2019-05-18T09:43:57.713Z,8.43
2019-05-18T09:45:02.722Z,7.78
2019-05-18T09:46:07.293Z,7.72
2019-05-18T09:47:12.667Z,8.08
2019-05-18T09:48:17.104Z,8.33
2019-05-18T09:49:22.077Z,7.50
2019-05-18T09:50:26.422Z,8.05
2019-05-18T09:51:31.397Z,8.43
2019-05-18T09:52:44.841Z,7.47
2019-05-18T09:53:51.199Z,8.50
2019-05-18T09:54:48.903Z,7.80
2019-05-18T09:55:53.910Z,8.10
2019-05-18T09:56:59.760Z,8.88
2019-05-18T09:58:04.767Z,9.08
2019-05-18T09:59:09.113Z,9.05
2019-05-18T10:00:15.640Z,9.78
2019-05-18T10:01:20.128Z,8.93
2019-05-18T10:02:25.241Z,8.58
2019-05-18T10:03:29.902Z,7.53
2019-05-18T10:04:34.830Z,8.40
2019-05-18T10:05:39.184Z,8.53
2019-05-18T10:06:44.155Z,7.65
2019-05-18T10:07:48.637Z,8.50
2019-05-18T10:08:55.082Z,8.63
2019-05-18T10:09:59.641Z,7.97
2019-05-18T10:11:04.569Z,8.15
2019-05-18T10:12:08.966Z,7.50
2019-05-18T10:13:14.339Z,7.87
2019-05-18T10:14:18.844Z,7.25
2019-05-18T10:15:23.790Z,7.28
2019-05-18T10:16:28.345Z,6.53
2019-05-18T10:17:33.378Z,6.92
2019-05-18T10:18:37.786Z,6.80
2019-05-18T10:19:42.717Z,6.72
2019-05-18T10:20:47.308Z,5.97
2019-05-18T10:21:52.205Z,6.05
2019-05-18T10:23:11.803Z,6.75
2019-05-18T10:24:03.492Z,6.15
2019-05-18T10:25:08.999Z,6.67
2019-05-18T10:26:14.486Z,6.53
2019-05-18T10:27:18.968Z,6.87
2019-05-18T10:28:24.014Z,5.35
2019-05-18T10:29:28.506Z,5.97
2019-05-18T10:30:33.479Z,6.15
2019-05-18T10:31:37.967Z,5.72
2019-05-18T10:32:42.923Z,5.83
2019-05-18T10:33:47.357Z,6.47
2019-05-18T10:34:52.619Z,6.22
2019-05-18T10:35:57.100Z,6.60
2019-05-18T10:37:02.114Z,6.60
2019-05-18T10:38:06.479Z,7.42
2019-05-18T10:39:11.566Z,6.58
2019-05-18T10:40:17.598Z,6.90
2019-05-18T10:41:22.795Z,7.45
2019-05-18T10:42:27.244Z,7.10
2019-05-18T10:43:33.258Z,6.70
2019-05-18T10:44:37.832Z,7.37
2019-05-18T10:45:45.064Z,8.08
2019-05-18T10:46:48.912Z,7.05
2019-05-18T10:47:53.916Z,7.17
2019-05-18T10:48:58.303Z,7.40
2019-05-18T10:50:03.301Z,6.97
2019-05-18T10:51:07.648Z,7.90
2019-05-18T10:52:13.224Z,8.70
2019-05-18T10:53:28.397Z,8.73
2019-05-18T10:54:24.252Z,8.00
2019-05-18T10:55:28.686Z,9.15
2019-05-18T10:56:33.607Z,7.75
2019-05-18T10:57:38.119Z,8.20
2019-05-18T10:58:43.199Z,7.33
2019-05-18T10:59:47.873Z,8.10
2019-05-18T11:00:52.854Z,7.85
2019-05-18T11:01:57.241Z,6.78
2019-05-18T11:03:02.224Z,5.65
2019-05-18T11:04:06.703Z,4.45
2019-05-18T11:05:15.051Z,4.12
2019-05-18T11:06:19.441Z,4.53
2019-05-18T11:07:28.852Z,4.90
2019-05-18T11:08:33.239Z,4.53
2019-05-18T11:09:38.253Z,5.10
2019-05-18T11:10:42.615Z,4.92
2019-05-18T11:11:47.694Z,4.45
2019-05-18T11:12:52.269Z,4.60
2019-05-18T11:13:57.378Z,5.70
2019-05-18T11:15:02.008Z,5.37
2019-05-18T11:16:07.062Z,5.12
2019-05-18T11:17:11.789Z,5.37
2019-05-18T11:18:16.928Z,5.25
2019-05-18T11:19:21.379Z,4.92
2019-05-18T11:20:26.306Z,5.12
2019-05-18T11:21:30.733Z,4.67
2019-05-18T11:22:35.695Z,5.83
2019-05-18T11:23:59.523Z,5.20
2019-05-18T11:25:04.461Z,4.87
2019-05-18T11:26:10.728Z,5.37
2019-05-18T11:27:16.038Z,5.03
2019-05-18T11:28:20.381Z,5.37
2019-05-18T11:29:25.342Z,5.08
2019-05-18T11:30:30.202Z,5.60
2019-05-18T11:31:35.107Z,7.10
2019-05-18T11:32:39.533Z,6.58
2019-05-18T11:33:44.469Z,5.92
2019-05-18T11:34:48.880Z,6.08
2019-05-18T11:35:55.775Z,6.12
2019-05-18T11:37:03.102Z,5.75
2019-05-18T11:38:07.005Z,5.42
2019-05-18T11:39:12.142Z,5.67
2019-05-18T11:40:17.531Z,5.25
2019-05-18T11:41:22.064Z,4.97
2019-05-18T11:42:26.983Z,4.83
2019-05-18T11:43:31.553Z,5.58
2019-05-18T11:44:36.468Z,5.50
2019-05-18T11:45:40.874Z,4.58
2019-05-18T11:46:45.852Z,5.17
2019-05-18T11:47:50.214Z,4.65
2019-05-18T11:48:55.399Z,5.15
2019-05-18T11:50:00.089Z,4.72
2019-05-18T11:51:05.142Z,4.35
2019-05-18T11:52:09.508Z,4.50
2019-05-18T11:53:16.134Z,4.40
2019-05-18T11:54:20.592Z,4.75
2019-05-18T11:55:27.057Z,4.90
2019-05-18T11:56:35.704Z,5.67
2019-05-18T11:57:40.785Z,4.67
2019-05-18T11:58:45.217Z,5.05
2019-05-18T11:59:50.257Z,5.05
2019-05-18T12:00:54.720Z,4.15
2019-05-18T12:02:01.463Z,5.03
2019-05-18T12:03:06.221Z,4.15
2019-05-18T12:04:11.402Z,4.87
2019-05-18T12:05:17.442Z,4.87
2019-05-18T12:06:22.388Z,5.12
2019-05-18T12:07:26.829Z,4.83
2019-05-18T12:08:31.827Z,5.08
2019-05-18T12:09:36.246Z,4.85
2019-05-18T12:10:42.865Z,4.58
2019-05-18T12:11:47.383Z,4.37
2019-05-18T12:12:52.364Z,5.25
2019-05-18T12:14:15.842Z,4.37
2019-05-18T12:15:21.555Z,4.12
2019-05-18T12:16:25.933Z,4.35
2019-05-18T12:17:32.688Z,4.90
2019-05-18T12:18:37.304Z,4.37
2019-05-18T12:19:42.499Z,5.50
2019-05-18T12:20:46.957Z,5.33
2019-05-18T12:21:51.947Z,5.30
2019-05-18T12:22:56.316Z,5.40
2019-05-18T12:24:14.845Z,5.20
2019-05-18T12:25:08.407Z,4.53
2019-05-18T12:26:13.924Z,5.28
2019-05-18T12:27:18.513Z,4.95
2019-05-18T12:28:23.472Z,4.45
2019-05-18T12:29:27.935Z,4.37
2019-05-18T12:30:32.937Z,4.33
2019-05-18T12:31:38.415Z,4.10
2019-05-18T12:32:43.727Z,4.30
2019-05-18T12:33:48.190Z,3.67
2019-05-18T12:34:53.148Z,4.12
2019-05-18T12:35:58.016Z,4.30
2019-05-18T12:37:03.012Z,3.62
2019-05-18T12:38:07.747Z,3.90
2019-05-18T12:39:12.987Z,3.95
2019-05-18T12:40:19.274Z,3.47
2019-05-18T12:41:30.120Z,3.37
2019-05-18T12:42:34.590Z,4.03
2019-05-18T12:43:39.533Z,3.80
2019-05-18T12:44:44.140Z,3.55
2019-05-18T12:45:49.069Z,4.80
2019-05-18T12:46:53.599Z,4.28
2019-05-18T12:47:58.843Z,3.70
2019-05-18T12:49:03.313Z,3.58
2019-05-18T12:50:13.993Z,3.95
2019-05-18T12:51:18.469Z,3.12
2019-05-18T12:52:23.439Z,3.62
2019-05-18T12:53:27.901Z,4.30
2019-05-18T12:54:45.650Z,3.15
2019-05-18T12:55:38.967Z,3.62
2019-05-18T12:56:45.008Z,3.12
2019-05-18T12:57:49.431Z,3.58
2019-05-18T12:58:54.413Z,3.75
2019-05-18T12:59:58.789Z,3.40
2019-05-18T13:01:03.725Z,3.20
2019-05-18T13:02:11.492Z,2.92
2019-05-18T13:03:16.923Z,2.72
2019-05-18T13:04:22.835Z,3.15
2019-05-18T13:05:27.833Z,2.77
2019-05-18T13:06:32.321Z,2.85
2019-05-18T13:07:37.330Z,2.80
2019-05-18T13:08:41.923Z,3.25
2019-05-18T13:09:47.057Z,2.45
2019-05-18T13:10:51.522Z,2.80
2019-05-18T13:11:56.520Z,3.10
2019-05-18T13:14:27.225Z,3.00
2019-05-18T13:15:32.132Z,3.05
2019-05-18T13:16:36.581Z,2.60
2019-05-18T13:17:41.605Z,2.98
2019-05-18T13:18:46.050Z,3.12
2019-05-18T13:19:51.076Z,3.05
2019-05-18T13:20:55.524Z,3.00
2019-05-18T13:22:00.543Z,3.10
2019-05-18T13:23:05.020Z,3.30
2019-05-18T13:24:10.012Z,3.55
2019-05-18T13:25:15.328Z,3.20
2019-05-18T13:26:20.424Z,3.50
2019-05-18T13:27:38.280Z,3.47
2019-05-18T13:28:31.539Z,3.30
2019-05-18T13:29:36.792Z,3.67
2019-05-18T13:30:41.864Z,3.35
2019-05-18T13:31:46.351Z,3.47
2019-05-18T13:32:52.399Z,3.45
2019-05-18T13:33:56.872Z,4.40
2019-05-18T13:35:02.262Z,3.50
2019-05-18T13:36:07.175Z,2.92
2019-05-18T13:37:12.592Z,2.80
2019-05-18T13:39:28.988Z,2.95
2019-05-18T13:40:33.576Z,3.35
2019-05-18T13:41:39.870Z,3.45
2019-05-18T13:42:44.303Z,3.47
2019-05-18T13:43:49.225Z,3.00
2019-05-18T13:44:53.789Z,2.98
2019-05-18T13:45:58.754Z,2.70
2019-05-18T13:47:03.224Z,3.05
2019-05-18T13:48:08.240Z,2.85
2019-05-18T13:49:13.233Z,3.12
2019-05-18T13:50:18.929Z,3.27
2019-05-18T13:51:23.281Z,3.60
2019-05-18T13:52:28.267Z,3.67
2019-05-18T13:53:32.828Z,3.47
2019-05-18T13:54:37.960Z,3.33
2019-05-18T13:55:42.500Z,3.25
2019-05-18T13:56:47.605Z,3.25
2019-05-18T13:57:52.149Z,3.30
2019-05-18T13:58:57.371Z,3.12
2019-05-18T14:00:03.026Z,2.90
2019-05-18T14:01:09.435Z,3.12
2019-05-18T14:02:14.235Z,2.87
2019-05-18T14:03:19.328Z,3.25
2019-05-18T14:04:24.855Z,3.60
2019-05-18T14:05:29.859Z,2.60
2019-05-18T14:06:35.429Z,3.27
2019-05-18T14:07:40.545Z,2.87
2019-05-18T14:08:45.167Z,3.05
2019-05-18T14:09:51.233Z,3.08
2019-05-18T14:10:56.847Z,3.25
2019-05-18T14:12:01.906Z,2.90
2019-05-18T14:13:07.257Z,2.60
2019-05-18T14:14:12.810Z,2.62